Terminal Aerodrome Forecast
Issued by NWS

Home | Current Version | Previous Version | Text Only | Print | Product List | Glossary On
Versions: 1 2 3 4 5 6 7 8 9 10 11 12 13
164
FTPA31 PHFO 252338
TAFHJH
TAF
PHJH 252338Z 2600/2624 36014KT P6SM SCT045
     FM260400 07008KT P6SM FEW040
     FM262100 04017G24KT P6SM SCT045
      AMD NOT SKED AFT 260400=

USA.gov is the U.S. government's official web portal to all federal, state and local government web resources and services.